RKJK/KUV METAR and TAF weather

Enter ICAO airport designator
Station Type Date Time Source
RKJK METAR 2020/08/15 16:56 UTC NOAA

RKJK 151656Z AUTO 16005KT 8SM CLR 26/26 A2982 RMK AO2 SLP102 T02560256 $


Station Type Date Time Source
RKJK Decoded METAR 2020/08/15 16:56 UTC NOAA

Kunsan Ab, Korea, South (RKJK) 35-55N 126-37E 10M
Aug 15, 2020 - 12:56 PM EDT / 2020.08.15 1656 UTC
Wind: from the SSE (160 degrees) at 6 MPH (5 KT):0
Visibility: 8 mile(s):0
Sky conditions: clear
Temperature: 78.1 F (25.6 C)
Dew Point: 78.1 F (25.6 C)
Relative Humidity: 100%
Pressure (altimeter): 29.82 in. Hg (1009 hPa)
ob: RKJK 151656Z AUTO 16005KT 8SM CLR 26/26 A2982 RMK AO2 SLP102 T02560256
cycle: 17

Station Type Date Time Source
RKJK TAF 2020/08/15 15:12 UTC NOAA

TAF TAF RKJK 151500Z 1515/1621 23006KT 8000 BR SKC QNH2982INS
BECMG 1517/1519 19009KT 4800 HZ BKN020 QNH2981INS
TEMPO 1519/1522 2400 HZ
BECMG 1601/1602 21009KT 9000 HZ FEW015 SCT020 QNH2983INS TX32/1605Z TN24/1518Z

Example: see airport list